MDT,Max TemperatureF,Mean TemperatureF,Min TemperatureF,Max Dew PointF,MeanDew PointF,Min DewpointF,Max Humidity, Mean Humidity, Min Humidity, Max Sea Level PressureIn, Mean Sea Level PressureIn, Min Sea Level PressureIn, Max VisibilityMiles, Mean VisibilityMiles, Min VisibilityMiles, Max Wind SpeedMPH, Mean Wind SpeedMPH, Max Gust SpeedMPH,PrecipitationIn, CloudCover, Events, WindDirDegrees
2013-10-1,76,62,47,50,44,34,86,58,29,29.98,29.89,29.72,10,10,5,23,10,29,0.00,0,,87
2013-10-2,81,64,46,57,52,45,93,68,42,29.92,29.81,29.70,10,10,7,14,3,16,0.00,0,,146
2013-10-3,65,56,47,54,51,44,100,84,67,29.80,29.72,29.65,10,7,1,18,10,23,0.00,7,,8
2013-10-4,54,45,35,54,41,25,100,71,42,30.14,29.84,29.61,10,7,0,41,25,52,T,4,Fog,321
2013-10-5,56,45,34,27,22,16,70,46,22,30.19,30.14,30.08,10,10,10,40,22,48,0.00,2,,319
2013-10-6,70,54,38,36,32,25,70,48,26,30.18,30.14,30.09,10,10,10,33,16,41,0.00,0,,329
2013-10-7,79,59,39,37,34,26,73,44,15,30.16,30.03,29.86,10,10,10,22,12,26,0.00,0,,204
2013-10-8,82,64,45,35,31,28,61,38,15,29.84,29.73,29.64,10,10,10,29,16,36,0.00,0,,177
2013-10-9,77,61,45,41,37,29,63,44,25,29.84,29.77,29.65,10,10,10,18,9,24,0.00,0,,261
2013-10-10,83,62,41,52,45,37,86,57,28,29.86,29.67,29.48,10,9,1,41,17,53,0.40,3,Rain-Thunderstorm,194
2013-10-11,65,53,40,43,38,33,86,63,39,30.04,29.77,29.53,10,10,7,31,12,39,0.14,2,Rain,303
2013-10-12,61,52,42,44,40,37,86,65,44,30.25,30.18,30.04,10,10,9,16,7,20,0.01,5,Rain,115
2013-10-13,64,52,40,54,43,33,86,65,43,30.31,30.15,30.00,10,10,10,35,22,43,T,3,Rain,161
2013-10-14,69,54,38,57,49,30,93,66,39,30.06,29.89,29.67,10,9,2,39,22,47,0.25,6,Rain-Thunderstorm,202
2013-10-15,50,40,30,30,28,26,85,66,46,30.27,30.21,30.07,10,10,10,31,19,39,0.00,1,,331
2013-10-16,53,41,28,34,29,25,92,67,42,30.23,30.12,30.02,10,10,10,15,9,21,0.00,2,,243
2013-10-17,57,45,32,34,30,26,85,62,38,30.12,30.08,30.02,10,10,10,18,11,22,0.11,2,Rain,349
2013-10-18,47,39,31,35,30,26,100,77,53,30.23,30.16,30.11,10,6,0,24,10,30,0.30,6,Fog-Rain-Snow,338
2013-10-19,63,48,32,34,30,26,82,55,27,30.13,30.01,29.88,10,10,10,21,9,29,0.00,0,,272
2013-10-20,54,44,33,38,33,28,89,68,46,30.13,29.96,29.81,10,10,10,24,12,30,0.00,3,,318
2013-10-21,60,46,32,36,32,28,96,63,29,30.20,30.12,30.05,10,10,10,23,10,30,T,3,,285
2013-10-22,67,52,37,38,36,34,85,57,29,30.12,30.09,30.05,10,10,10,26,11,35,0.00,4,,305
2013-10-23,69,53,36,38,34,29,85,54,22,30.22,30.10,30.02,10,10,10,22,11,28,0.00,0,,339
2013-10-24,51,41,31,36,34,28,92,74,56,30.40,30.34,30.23,10,9,2,16,9,20,0.00,3,,146
2013-10-25,64,49,33,41,36,30,96,68,39,30.35,30.19,30.06,10,10,10,28,12,36,0.00,0,,199
2013-10-26,62,50,37,39,34,31,92,64,35,30.34,30.22,30.09,10,10,10,21,11,26,0.00,0,,331
2013-10-27,74,56,37,35,32,30,70,46,22,30.09,29.90,29.77,10,10,10,20,10,24,0.00,0,,208
2013-10-28,44,39,33,37,34,29,100,84,67,30.09,30.01,29.79,10,8,2,22,12,26,0.02,6,,23
2013-10-29,43,39,35,37,36,34,100,88,76,30.07,30.02,29.95,10,5,0,15,8,17,T,8,Fog-Rain,10
2013-10-30,57,46,35,39,36,32,100,74,47,29.99,29.89,29.78,10,7,1,15,5,18,0.01,5,,288
2013-10-31,59,47,34,35,27,21,85,54,23,29.83,29.78,29.71,10,10,10,37,15,44,T,2,Rain,296